Terminal Aerodrome Forecast
Issued by NWS

Home | Current Version | Previous Version | Text Only | Print | Product List | Glossary On
Versions: 1 2 3 4 5 6 7 8 9 10 11 12 13 14 15
000
FTUS46 KSEW 040520
TAFHQM
TAF
KHQM 040520Z 0406/0506 25010KT P6SM SCT015
     FM040900 28007KT 6SM BR OVC015
     FM041100 27006KT 5SM BR OVC008
     FM041900 24012KT P6SM OVC015
     FM042200 24016KT P6SM SCT020 OVC040
     FM050400 27010KT P6SM OVC020=

USA.gov is the U.S. government's official web portal to all federal, state and local government web resources and services.